Home > Products > Valid Products > TAF

000
FTUS44 KSJT 051400 AAA
TAFJCT
TAF AMD
KJCT 051402Z 0514/0612 17011KT P6SM BKN025
     FM051600 17012G18KT P6SM BKN250=



000
FTUS44 KSJT 051400 AAA
TAFSJT
TAF AMD
KSJT 051401Z 0514/0612 17012G18KT P6SM SKC=



000
FTUS44 KSJT 051100
TAFSJT
TAF
KSJT 051120Z 0512/0612 16007KT P6SM BKN080
     FM051800 17012G18KT P6SM SKC=



000
FTUS44 KSJT 051100
TAFABI
TAF
KABI 051120Z 0512/0612 16007KT P6SM SCT070
     FM051500 20014G20KT P6SM FEW250=



000
FTUS44 KSJT 051100
TAFJCT
TAF
KJCT 051120Z 0512/0612 VRB06KT P6SM SCT250
     FM051500 17011KT P6SM SCT015
     FM051800 17012G18KT P6SM BKN250=



000
FTUS44 KSJT 050500
TAFJCT
TAF
KJCT 050520Z 0506/0606 VRB06KT P6SM SKC
     FM050800 VRB06KT P6SM OVC015
     FM051500 17011KT P6SM OVC015
     FM051800 17012G18KT P6SM BKN250=



000
FTUS44 KSJT 050500
TAFSJT
TAF
KSJT 050520Z 0506/0606 16007KT P6SM SCT070
     FM051800 17012G18KT P6SM SKC=



000
FTUS44 KSJT 050500
TAFSJT
TAF
KSJT 050520Z 0506/0606 16007KT P6SM SCT070
     FM051800 17012G18KT P6SM SKC=



000
FTUS44 KSJT 050500
TAFABI
TAF
KABI 050520Z 0506/0606 16007KT P6SM SCT070
     FM051500 20014G20KT P6SM FEW250=



000
FTUS44 KSJT 050500
TAFJCT
TAF
KJCT 050520Z 0506/0606 VRB06KT P6SM SKC
     FM050800 VRB06KT P6SM OVC015
     FM051500 17011KT P6SM OVC015
     FM051800 17012G18KT P6SM BKN250=



000
FTUS44 KSJT 050500
TAFABI
TAF
KABI 050520Z 0506/0606 16007KT P6SM SCT070
     FM051500 20014G20KT P6SM FEW250=



000
FTUS44 KSJT 050200 AAA
TAFABI
TAF AMD
KABI 050249Z 0503/0524 16008KT P6SM SCT070
     FM051200 18009KT P6SM SKC
     FM051500 20014G20KT P6SM FEW250=



000
FTUS44 KSJT 050200 AAA
TAFABI
TAF AMD
KABI 050249Z 0503/0524 16008KT P6SM SCT070
     FM051200 18009KT P6SM SKC
     FM051500 20014G20KT P6SM FEW250=



000
FTUS44 KSJT 042300 RRA
TAFSJT
TAF
KSJT 042342Z 0500/0524 14010KT P6SM SCT060
     FM051200 16007KT P6SM SCT250
     FM051600 17011G18KT P6SM SKC=



000
FTUS44 KSJT 042300 RRA
TAFABI
TAF
KABI 042342Z 0500/0524 16009G18KT P6SM SCT070
     FM051200 18009KT P6SM SKC
     FM051500 20014G20KT P6SM FEW250=



000
FTUS44 KSJT 042300 RRA
TAFJCT
TAF
KJCT 042342Z 0500/0524 15010G16KT P6SM BKN060 BKN080
     FM050800 16007KT P6SM OVC015
     FM051500 18012KT P6SM OVC015=



000
FTUS44 KSJT 042300 AAA
TAFJCT
TAF AMD
KJCT 042302Z 0423/0518 15010G16KT P6SM BKN060 BKN080
     FM050800 16007KT P6SM OVC015
     FM051500 18012KT P6SM OVC015=



000
FTUS44 KSJT 042200 AAA
TAFSJT
TAF AMD
KSJT 042210Z 0422/0518 14010KT P6SM SCT060
     FM051200 16007KT P6SM SCT250
     FM051600 17011G18KT P6SM SKC=



000
FTUS44 KSJT 042200 AAA
TAFSJT
TAF AMD
KSJT 042210Z 0422/0518 14010KT P6SM SCT060
     FM051200 16007KT P6SM SCT250
     FM051600 17011G18KT P6SM SKC=



000
FTUS44 KSJT 041700
TAFJCT
TAF
KJCT 041720Z 0418/0518 17012KT P6SM SCT040
     FM050800 16007KT P6SM OVC015
     FM051500 18012KT P6SM OVC015=



000
FTUS44 KSJT 041700
TAFSJT
TAF
KSJT 041720Z 0418/0518 16008G17KT P6SM SCT035
     FM051200 16007KT P6SM SCT250
     FM051600 17011G18KT P6SM SKC=



000
FTUS44 KSJT 041700
TAFABI
TAF
KABI 041720Z 0418/0518 16009G18KT P6SM SCT070
     FM051200 18009KT P6SM SKC
     FM051500 20014G20KT P6SM FEW250=



000
FTUS44 KSJT 041500 AAB
TAFJCT
TAF AMD
KJCT 041527Z 0415/0512 17012KT P6SM FEW030=



000
FTUS44 KSJT 041400 AAA
TAFJCT
TAF AMD
KJCT 041410Z 0414/0512 16005KT P6SM BKN020
      TEMPO 0414/0416 BKN022
     FM041600 17008G14KT P6SM SCT070=



000
FTUS44 KSJT 041400 AAA
TAFJCT
TAF AMD
KJCT 041410Z 0414/0512 16005KT P6SM BKN020
      TEMPO 0414/0416 BKN022
     FM041600 17008G14KT P6SM SCT070=



000
FTUS44 KSJT 041100
TAFJCT
TAF
KJCT 041122Z 0412/0512 16005KT P6SM SCT022 BKN250
      TEMPO 0412/0414 BKN022
     FM041600 17008G14KT P6SM SCT070=



000
FTUS44 KSJT 041100
TAFSJT
TAF
KSJT 041122Z 0412/0512 16008KT P6SM SCT250
     FM041800 16010G16KT P6SM SCT070=



000
FTUS44 KSJT 041100
TAFABI
TAF
KABI 041122Z 0412/0512 15008KT P6SM SCT250
     FM041800 17011G17KT P6SM SCT070=



000
FTUS44 KSJT 041000 AAA
TAFJCT
TAF AMD
KJCT 041015Z 0410/0506 16005KT P6SM SCT022 BKN250
      TEMPO 0411/0414 BKN022
     FM041800 17008G14KT P6SM BKN250=



000
FTUS44 KSJT 040500
TAFJCT
TAF
KJCT 040520Z 0406/0506 14006KT P6SM SCT060
     FM040800 16005KT P6SM OVC015
     FM041800 17008G14KT P6SM BKN250=



000
FTUS44 KSJT 040500
TAFSJT
TAF
KSJT 040520Z 0406/0506 16008KT P6SM SCT060
     FM041800 16010G16KT P6SM FEW250=



000
FTUS44 KSJT 040500
TAFABI
TAF
KABI 040520Z 0406/0506 15008KT P6SM SCT060
     FM041800 17011G17KT P6SM FEW250=



000
FTUS44 KSJT 032300
TAFSJT
TAF
KSJT 032320Z 0400/0424 17008KT P6SM SCT060
     FM041800 16010G16KT P6SM FEW250=



000
FTUS44 KSJT 032300
TAFABI
TAF
KABI 032320Z 0400/0424 17008KT P6SM SCT060
     FM041800 17011G17KT P6SM FEW250=



000
FTUS44 KSJT 032300
TAFJCT
TAF
KJCT 032320Z 0400/0424 16008KT P6SM SCT060
     FM040800 16005KT P6SM OVC015
     FM041800 17008G14KT P6SM BKN250=



000
FTUS44 KSJT 032200 AAB
TAFABI
TAF AMD
KABI 032218Z 0322/0418 17010KT P6SM BKN250
     FM040100 16009KT P6SM SCT250=



000
FTUS44 KSJT 032200 AAB
TAFABI
TAF AMD
KABI 032218Z 0322/0418 17010KT P6SM BKN250
     FM040100 16009KT P6SM SCT250=



000
FTUS44 KSJT 032100 AAA
TAFABI
TAF AMD
KABI 032107Z 0321/0418 22010G16KT P6SM BKN250
     FM040100 16009KT P6SM SCT250=



000
FTUS44 KSJT 031700
TAFABI
TAF
KABI 031720Z 0318/0418 20012G18KT P6SM BKN250
     FM040100 16009KT P6SM SCT250=



000
FTUS44 KSJT 031700
TAFJCT
TAF
KJCT 031720Z 0318/0418 17011G17KT P6SM BKN040
     FM040200 14007KT P6SM BKN250
     FM040800 16005KT P6SM OVC015
     FM041700 18007G13KT P6SM OVC050=



000
FTUS44 KSJT 031700
TAFSJT
TAF
KSJT 031720Z 0318/0418 17012KT P6SM SCT045
     FM041700 16009G15KT P6SM FEW250=



000
FTUS44 KSJT 031700
TAFJCT
TAF
KJCT 031720Z 0318/0418 17011G17KT P6SM BKN040
     FM040200 14007KT P6SM BKN250
     FM040800 16005KT P6SM OVC015
     FM041700 18007G13KT P6SM OVC050=



000
FTUS44 KSJT 031700
TAFABI
TAF
KABI 031720Z 0318/0418 20012G18KT P6SM BKN250
     FM040100 16009KT P6SM SCT250=



000
FTUS44 KSJT 031700
TAFSJT
TAF
KSJT 031720Z 0318/0418 17012KT P6SM SCT045
     FM041700 16009G15KT P6SM FEW250=



000
FTUS44 KSJT 031600 AAA
TAFABI
TAF AMD
KABI 031600Z 0316/0412 21012G18KT P6SM BKN070
     FM031800 21012KT P6SM BKN250
     FM040100 16007KT P6SM SCT250=



000
FTUS44 KSJT 031100
TAFJCT
TAF
KJCT 031123Z 0312/0412 15008KT P6SM SCT018 BKN250
     FM031500 17011G17KT P6SM FEW040 SCT250
     FM040100 15008KT P6SM SCT250=



000
FTUS44 KSJT 031100
TAFSJT
TAF
KSJT 031123Z 0312/0412 17008KT P6SM BKN250
     FM031600 18011G17KT P6SM FEW060
     FM040100 16008KT P6SM SKC=



000
FTUS44 KSJT 031100
TAFABI
TAF
KABI 031123Z 0312/0412 17008KT P6SM BKN200
     FM031700 20012G18KT P6SM FEW060 SCT250
     FM040100 16007KT P6SM SCT250=



000
FTUS44 KSJT 031100
TAFSJT
TAF
KSJT 031123Z 0312/0412 17008KT P6SM BKN250
     FM031600 18011G17KT P6SM FEW060
     FM040100 16008KT P6SM SKC=



000
FTUS44 KSJT 031100
TAFABI
TAF
KABI 031123Z 0312/0412 17008KT P6SM BKN200
     FM031700 20012G18KT P6SM FEW060 SCT250
     FM040100 16007KT P6SM SCT250=



000
FTUS44 KSJT 031100
TAFJCT
TAF
KJCT 031123Z 0312/0412 15008KT P6SM SCT018 BKN250
     FM031500 17011G17KT P6SM FEW040 SCT250
     FM040100 15008KT P6SM SCT250=



000
FTUS44 KSJT 030500
TAFSJT
TAF
KSJT 030520Z 0306/0406 17008KT P6SM FEW250
     FM031600 18011G17KT P6SM FEW060
     FM040100 16008KT P6SM SKC=



000
FTUS44 KSJT 030500
TAFABI
TAF
KABI 030520Z 0306/0406 16008KT P6SM SCT200
     FM031700 20012G18KT P6SM FEW060 SCT250
     FM040100 16007KT P6SM SCT250=



000
FTUS44 KSJT 030500
TAFJCT
TAF
KJCT 030520Z 0306/0406 15008KT P6SM FEW040 SCT250
     FM031100 16007KT P6SM BKN015
     FM031500 17011G17KT P6SM FEW040 SCT250
     FM040100 15008KT P6SM SCT250=



000
FTUS44 KSJT 030500
TAFABI
TAF
KABI 030520Z 0306/0406 16008KT P6SM SCT200
     FM031700 20012G18KT P6SM FEW060 SCT250
     FM040100 16007KT P6SM SCT250=



000
FTUS44 KSJT 030500
TAFJCT
TAF
KJCT 030520Z 0306/0406 15008KT P6SM FEW040 SCT250
     FM031100 16007KT P6SM BKN015
     FM031500 17011G17KT P6SM FEW040 SCT250
     FM040100 15008KT P6SM SCT250=



000
FTUS44 KSJT 022300
TAFJCT
TAF
KJCT 022320Z 0300/0324 17007KT P6SM FEW040 BKN250
     FM030700 16007KT P6SM OVC012
     FM031600 17011G19KT P6SM FEW040 BKN250=



000
FTUS44 KSJT 022300
TAFSJT
TAF
KSJT 022320Z 0300/0324 17008KT P6SM FEW060 BKN250
     FM031800 17012G20KT P6SM FEW060 BKN250=



000
FTUS44 KSJT 022300
TAFABI
TAF
KABI 022320Z 0300/0324 19010KT P6SM SCT060 BKN250
     FM031800 20012G20KT P6SM SCT060 BKN250=



000
FTUS44 KSJT 021700
TAFSJT
TAF
KSJT 021720Z 0218/0318 18012G18KT P6SM SCT250
     FM030200 16007KT P6SM BKN250
     FM031500 17009G16KT P6SM BKN250=



000
FTUS44 KSJT 021700
TAFABI
TAF
KABI 021720Z 0218/0318 19013G20KT P6SM BKN250
     FM030100 17012KT P6SM BKN250=



000
FTUS44 KSJT 021700
TAFJCT
TAF
KJCT 021720Z 0218/0318 17013G20KT P6SM BKN250
     FM030200 14007KT P6SM BKN250
     FM030700 16008KT P6SM OVC015
     FM031000 17010G16KT P6SM OVC015
     FM031500 18012G18KT P6SM BKN250=



000
FTUS44 KSJT 021700
TAFABI
TAF
KABI 021720Z 0218/0318 19013G20KT P6SM BKN250
     FM030100 17012KT P6SM BKN250=



000
FTUS44 KSJT 021700
TAFJCT
TAF
KJCT 021720Z 0218/0318 17013G20KT P6SM BKN250
     FM030200 14007KT P6SM BKN250
     FM030700 16008KT P6SM OVC015
     FM031000 17010G16KT P6SM OVC015
     FM031500 18012G18KT P6SM BKN250=



000
FTUS44 KSJT 021700
TAFSJT
TAF
KSJT 021720Z 0218/0318 18012G18KT P6SM SCT250
     FM030200 16007KT P6SM BKN250
     FM031500 17009G16KT P6SM BKN250=



    US Dept of Commerce
    National Oceanic and Atmospheric Administration
    National Weather Service
    1325 East West Highway
    Silver Spring, MD 20910
    Page Author: NWS Internet Services Team
Disclaimer
Information Quality
Credits
Glossary
Privacy Policy
Freedom of Information Act (FOIA)
About Us
Career Opportunities